createdAt,value
2023-03-10T00:00:11.342Z,0.70
2023-03-10T00:02:46.698Z,1.10
2023-03-10T00:05:14.770Z,0.83
2023-03-10T00:07:42.682Z,0.80
2023-03-10T00:10:12.106Z,0.60
2023-03-10T00:12:40.025Z,0.60
2023-03-10T00:15:08.778Z,0.80
2023-03-10T00:17:36.759Z,1.03
2023-03-10T00:20:08.117Z,0.93
2023-03-10T00:22:36.324Z,0.90
2023-03-10T00:25:04.319Z,1.20
2023-03-10T00:27:32.199Z,0.90
2023-03-10T00:30:00.228Z,0.80
2023-03-10T00:32:28.193Z,1.23
2023-03-10T00:34:56.262Z,9.43
2023-03-10T00:37:25.801Z,2.30
2023-03-10T00:39:54.081Z,1.50
2023-03-10T00:42:22.025Z,1.40
2023-03-10T00:44:50.050Z,1.30
2023-03-10T00:47:18.016Z,1.70
2023-03-10T00:49:45.947Z,1.70
2023-03-10T00:52:13.948Z,1.40
2023-03-10T00:54:43.321Z,1.50
2023-03-10T00:57:11.236Z,1.67
2023-03-10T00:59:49.916Z,1.53
2023-03-10T01:02:18.489Z,1.90
2023-03-10T01:04:46.423Z,2.10
2023-03-10T01:07:14.429Z,1.97
2023-03-10T01:09:44.687Z,2.03
2023-03-10T01:12:12.621Z,2.17
2023-03-10T01:14:40.570Z,2.00
2023-03-10T01:17:08.447Z,2.30
2023-03-10T01:19:36.323Z,2.07
2023-03-10T01:22:04.245Z,2.30
2023-03-10T01:24:32.254Z,2.43
2023-03-10T01:27:01.592Z,2.43
2023-03-10T01:29:29.567Z,2.40
2023-03-10T01:31:57.450Z,2.17
2023-03-10T01:34:25.372Z,2.50
2023-03-10T01:36:53.367Z,2.33
2023-03-10T01:39:21.334Z,2.83
2023-03-10T01:41:49.281Z,2.83
2023-03-10T01:44:20.224Z,2.40
2023-03-10T01:46:51.344Z,2.37
2023-03-10T01:49:21.852Z,2.83
2023-03-10T01:51:51.933Z,2.30
2023-03-10T01:54:22.022Z,2.73
2023-03-10T01:56:51.160Z,2.93
2023-03-10T01:59:20.918Z,2.97
2023-03-10T02:01:49.789Z,2.80
2023-03-10T02:04:20.382Z,2.50
2023-03-10T02:06:48.979Z,2.33
2023-03-10T02:09:18.477Z,2.73
2023-03-10T02:11:46.807Z,2.77
2023-03-10T02:14:14.844Z,3.00
2023-03-10T02:16:44.252Z,2.73
2023-03-10T02:19:16.297Z,3.10
2023-03-10T02:21:46.399Z,3.17
2023-03-10T02:24:20.274Z,2.97
2023-03-10T02:26:51.685Z,3.33
2023-03-10T02:29:23.213Z,2.80
2023-03-10T02:31:51.653Z,3.03
2023-03-10T02:34:19.991Z,3.30
2023-03-10T02:36:47.923Z,3.00
2023-03-10T02:39:15.904Z,3.53
2023-03-10T02:41:45.459Z,3.60
2023-03-10T02:44:15.000Z,3.40
2023-03-10T02:46:44.707Z,3.60
2023-03-10T02:49:12.731Z,3.63
2023-03-10T02:51:41.547Z,4.00
2023-03-10T02:54:10.348Z,3.60
2023-03-10T02:56:38.340Z,3.37
2023-03-10T02:59:07.170Z,3.37
2023-03-10T03:01:35.477Z,3.30
2023-03-10T03:04:05.136Z,3.60
2023-03-10T03:06:33.130Z,3.50
2023-03-10T03:09:01.037Z,3.17
2023-03-10T03:11:29.143Z,3.20
2023-03-10T03:13:59.096Z,2.83
2023-03-10T03:16:27.205Z,3.00
2023-03-10T03:18:55.218Z,2.73
2023-03-10T03:21:24.735Z,2.83
2023-03-10T03:23:52.663Z,2.57
2023-03-10T03:26:21.841Z,2.30
2023-03-10T03:28:49.970Z,2.23
2023-03-10T03:31:18.714Z,2.63
2023-03-10T03:33:46.852Z,2.70
2023-03-10T03:36:15.471Z,2.30
2023-03-10T03:38:44.832Z,2.20
2023-03-10T03:41:12.722Z,2.60
2023-03-10T03:43:40.678Z,1.87
2023-03-10T03:46:08.724Z,1.70
2023-03-10T03:48:36.681Z,1.60
2023-03-10T03:51:04.758Z,1.80
2023-03-10T03:53:35.762Z,1.67
2023-03-10T03:56:05.273Z,1.97
2023-03-10T03:58:33.188Z,1.80
2023-03-10T04:01:01.149Z,1.70
2023-03-10T04:03:29.128Z,1.40
2023-03-10T04:05:57.097Z,1.40
2023-03-10T04:08:24.976Z,1.70
2023-03-10T04:10:53.298Z,1.77
2023-03-10T04:13:23.154Z,1.83
2023-03-10T04:15:56.009Z,1.77
2023-03-10T04:18:24.037Z,1.60
2023-03-10T04:20:52.000Z,1.90
2023-03-10T04:23:19.876Z,2.10
2023-03-10T04:25:47.804Z,1.47
2023-03-10T04:28:15.700Z,1.50
2023-03-10T04:30:45.466Z,1.70
2023-03-10T04:33:13.795Z,2.03
2023-03-10T04:35:42.644Z,1.50
2023-03-10T04:38:10.718Z,1.80
2023-03-10T04:40:38.683Z,1.50
2023-03-10T04:43:06.575Z,2.10
2023-03-10T04:45:34.497Z,1.90
2023-03-10T04:48:03.920Z,1.93
2023-03-10T04:50:31.889Z,2.00
2023-03-10T04:52:59.825Z,1.60
2023-03-10T04:55:27.714Z,2.07
2023-03-10T04:57:55.635Z,1.33
2023-03-10T05:00:23.616Z,1.93
2023-03-10T05:02:51.721Z,1.30
2023-03-10T05:05:21.080Z,1.37
2023-03-10T05:07:49.068Z,1.57
2023-03-10T05:10:17.008Z,1.00
2023-03-10T05:12:44.883Z,1.10
2023-03-10T05:15:13.253Z,0.87
2023-03-10T05:17:41.198Z,0.93
2023-03-10T05:20:09.949Z,0.50
2023-03-10T05:22:39.505Z,0.87
2023-03-10T05:25:08.073Z,0.73
2023-03-10T05:27:36.126Z,0.60
2023-03-10T05:30:05.294Z,0.50
2023-03-10T05:32:35.364Z,0.43
2023-03-10T05:35:03.801Z,0.57
2023-03-10T05:37:31.820Z,0.37
2023-03-10T05:40:01.179Z,0.70
2023-03-10T05:42:29.137Z,0.60
2023-03-10T05:44:57.279Z,0.50
2023-03-10T05:47:25.197Z,0.40
2023-03-10T05:49:53.397Z,0.50
2023-03-10T05:52:21.313Z,0.40
2023-03-10T05:54:49.250Z,0.47
2023-03-10T05:57:18.675Z,0.50
2023-03-10T05:59:46.578Z,0.53
2023-03-10T06:02:14.552Z,0.50
2023-03-10T06:04:42.470Z,0.80
2023-03-10T06:07:10.384Z,0.50
2023-03-10T06:09:38.299Z,0.67
2023-03-10T06:12:06.472Z,0.50
2023-03-10T06:14:35.819Z,0.60
2023-03-10T06:17:03.797Z,1.00
2023-03-10T06:19:32.048Z,1.10
2023-03-10T06:21:59.964Z,0.73
2023-03-10T06:24:29.135Z,0.43
2023-03-10T06:26:57.312Z,0.77
2023-03-10T06:29:25.253Z,1.00
2023-03-10T06:31:54.714Z,1.00
2023-03-10T06:34:22.713Z,1.40
2023-03-10T06:36:50.645Z,0.63
2023-03-10T06:39:18.606Z,0.90
2023-03-10T06:41:46.581Z,2.03
2023-03-10T06:44:18.864Z,0.90
2023-03-10T06:46:47.015Z,1.03
2023-03-10T06:49:16.374Z,1.07
2023-03-10T06:51:44.334Z,1.30
2023-03-10T06:54:12.311Z,1.40
2023-03-10T06:56:40.276Z,3.53
2023-03-10T06:59:08.296Z,1.20
2023-03-10T07:01:36.437Z,1.10
2023-03-10T07:04:04.478Z,2.20
2023-03-10T07:06:33.827Z,1.57
2023-03-10T07:09:02.088Z,1.37
2023-03-10T07:11:30.071Z,1.67
2023-03-10T07:13:57.984Z,1.33
2023-03-10T07:16:25.939Z,0.83
2023-03-10T07:18:53.936Z,0.93
2023-03-10T07:21:22.524Z,0.70
2023-03-10T07:23:51.924Z,1.00
2023-03-10T07:26:20.095Z,0.70
2023-03-10T07:28:48.481Z,0.90
2023-03-10T07:31:17.202Z,1.17
2023-03-10T07:33:45.359Z,1.10
2023-03-10T07:36:14.870Z,0.93
2023-03-10T07:38:42.850Z,1.20
2023-03-10T07:41:13.389Z,1.00
2023-03-10T07:43:41.366Z,1.30
2023-03-10T07:46:10.217Z,1.00
2023-03-10T07:48:38.343Z,1.13
2023-03-10T07:51:06.632Z,1.13
2023-03-10T07:53:34.749Z,1.20
2023-03-10T07:56:05.272Z,0.93
2023-03-10T07:58:34.777Z,1.20
2023-03-10T08:01:03.136Z,1.00
2023-03-10T08:03:31.150Z,1.10
2023-03-10T08:05:59.907Z,0.93
2023-03-10T08:08:28.032Z,1.17
2023-03-10T08:11:03.918Z,1.40
2023-03-10T08:13:32.245Z,1.03
2023-03-10T08:16:02.457Z,1.17
2023-03-10T08:18:31.663Z,1.10
2023-03-10T08:20:59.950Z,1.60
2023-03-10T08:23:27.888Z,1.50
2023-03-10T08:25:55.983Z,1.90
2023-03-10T08:28:23.902Z,1.00
2023-03-10T08:31:03.643Z,1.57
2023-03-10T08:33:34.857Z,1.40
2023-03-10T08:36:04.059Z,1.87
2023-03-10T08:38:32.276Z,1.40
2023-03-10T08:41:09.232Z,1.20
2023-03-10T08:43:37.308Z,1.53
2023-03-10T08:46:07.327Z,1.27
2023-03-10T08:48:38.145Z,1.00
2023-03-10T08:51:06.918Z,0.93
2023-03-10T08:53:35.878Z,1.27
2023-03-10T08:56:04.436Z,0.77
2023-03-10T08:58:32.404Z,0.67
2023-03-10T09:01:00.725Z,0.80
2023-03-10T09:03:31.440Z,1.20
2023-03-10T09:06:01.226Z,0.90
2023-03-10T09:08:29.204Z,0.60
2023-03-10T09:10:57.089Z,0.83
2023-03-10T09:13:25.122Z,0.87
2023-03-10T09:15:53.163Z,0.77
2023-03-10T09:18:21.249Z,1.20
2023-03-10T09:20:49.171Z,1.10
2023-03-10T09:23:18.959Z,1.10
2023-03-10T09:25:46.916Z,0.60
2023-03-10T09:28:17.422Z,0.90
2023-03-10T09:30:46.540Z,1.20
2023-03-10T09:33:16.740Z,0.83
2023-03-10T09:35:52.540Z,0.87
2023-03-10T09:38:27.316Z,1.00
2023-03-10T09:40:58.000Z,1.00
2023-03-10T09:43:26.419Z,0.70
2023-03-10T09:45:56.597Z,0.60
2023-03-10T09:48:32.820Z,1.03
2023-03-10T09:51:05.991Z,1.20
2023-03-10T09:53:51.754Z,1.63
2023-03-10T09:56:22.547Z,2.13
2023-03-10T09:58:52.282Z,1.47
2023-03-10T10:01:22.347Z,1.10
2023-03-10T10:03:53.634Z,1.40
2023-03-10T10:06:26.741Z,0.97
2023-03-10T10:09:04.126Z,1.10
2023-03-10T10:11:36.765Z,1.10
2023-03-10T10:14:28.297Z,0.87
2023-03-10T10:17:01.421Z,1.47
2023-03-10T10:19:29.833Z,1.07
2023-03-10T10:22:01.557Z,1.03
2023-03-10T10:24:29.545Z,1.37
2023-03-10T10:26:58.947Z,1.10
2023-03-10T10:29:27.700Z,0.83
2023-03-10T10:32:06.387Z,1.40
2023-03-10T10:34:34.623Z,1.43
2023-03-10T10:37:02.842Z,1.20
2023-03-10T10:39:33.087Z,1.37
2023-03-10T10:42:20.591Z,1.30
2023-03-10T10:44:48.550Z,1.37
2023-03-10T10:47:25.643Z,1.00
2023-03-10T10:49:53.875Z,1.50
2023-03-10T10:52:22.547Z,1.60
2023-03-10T10:54:59.429Z,1.60
2023-03-10T10:57:31.219Z,1.87
2023-03-10T11:00:14.837Z,2.03
2023-03-10T11:02:42.794Z,1.50
2023-03-10T11:05:14.997Z,1.50
2023-03-10T11:07:44.231Z,1.93
2023-03-10T11:10:14.007Z,1.80
2023-03-10T11:12:51.440Z,1.77
2023-03-10T11:15:22.210Z,1.60
2023-03-10T11:17:53.298Z,1.73
2023-03-10T11:20:26.650Z,1.97
2023-03-10T11:22:57.149Z,2.13
2023-03-10T11:25:27.562Z,1.60
2023-03-10T11:28:09.271Z,1.80
2023-03-10T11:30:39.378Z,1.97
2023-03-10T11:33:14.486Z,1.83
2023-03-10T11:35:45.941Z,1.80
2023-03-10T11:38:22.438Z,2.03
2023-03-10T11:40:56.801Z,1.60
2023-03-10T11:43:33.783Z,2.10
2023-03-10T11:46:05.162Z,2.17
2023-03-10T11:48:41.941Z,1.90
2023-03-10T11:51:13.579Z,2.10
2023-03-10T11:53:44.320Z,1.73
2023-03-10T11:56:14.831Z,1.67
2023-03-10T11:58:46.710Z,1.43
2023-03-10T12:01:16.348Z,2.00
2023-03-10T12:03:48.826Z,1.90
2023-03-10T12:06:19.357Z,1.67
2023-03-10T12:08:48.131Z,1.73
2023-03-10T12:11:18.684Z,1.80
2023-03-10T12:13:49.629Z,1.40
2023-03-10T12:16:20.435Z,1.80
2023-03-10T12:18:48.683Z,1.43
2023-03-10T12:21:19.172Z,1.33
2023-03-10T12:23:47.704Z,1.60
2023-03-10T12:26:16.018Z,1.73
2023-03-10T12:28:44.129Z,1.40
2023-03-10T12:31:15.561Z,1.90
2023-03-10T12:33:53.674Z,1.90
2023-03-10T12:36:27.899Z,1.57
2023-03-10T12:38:57.693Z,1.77
2023-03-10T12:41:46.094Z,1.20
2023-03-10T12:44:34.593Z,1.80
2023-03-10T12:47:14.030Z,1.17
2023-03-10T12:49:47.430Z,1.60
2023-03-10T12:52:21.436Z,1.50
2023-03-10T12:54:53.368Z,1.80
2023-03-10T12:57:25.102Z,1.90
2023-03-10T12:59:57.513Z,4.07
2023-03-10T13:02:33.666Z,2.00
2023-03-10T13:05:03.631Z,1.50
2023-03-10T13:07:32.381Z,1.83
2023-03-10T13:10:02.472Z,1.83
2023-03-10T13:12:32.383Z,1.87
2023-03-10T13:15:01.485Z,2.70
2023-03-10T13:17:31.585Z,2.10
2023-03-10T13:20:05.731Z,2.20
2023-03-10T13:22:34.232Z,1.60
2023-03-10T13:25:03.505Z,2.10
2023-03-10T13:27:33.237Z,1.53
2023-03-10T13:30:03.640Z,1.73
2023-03-10T13:32:34.455Z,1.97
2023-03-10T13:35:13.722Z,1.60
2023-03-10T13:37:41.700Z,1.50
2023-03-10T13:40:11.104Z,1.63
2023-03-10T13:42:44.109Z,1.70
2023-03-10T13:45:22.301Z,1.87
2023-03-10T13:47:51.894Z,1.57
2023-03-10T13:50:19.987Z,1.93
2023-03-10T13:52:57.357Z,1.70
2023-03-10T13:55:27.626Z,1.83
2023-03-10T13:57:55.914Z,1.73
2023-03-10T14:00:25.082Z,1.87
2023-03-10T14:02:55.053Z,2.23
2023-03-10T14:05:39.312Z,1.80
2023-03-10T14:08:07.400Z,1.70
2023-03-10T14:10:35.408Z,1.87
2023-03-10T14:13:03.309Z,2.03
2023-03-10T14:15:38.334Z,1.83
2023-03-10T14:18:20.385Z,2.13
2023-03-10T14:20:49.626Z,1.63
2023-03-10T14:23:35.160Z,1.80
2023-03-10T14:26:03.295Z,1.87
2023-03-10T14:28:32.384Z,1.83
2023-03-10T14:31:02.621Z,1.70
2023-03-10T14:33:32.181Z,1.83
2023-03-10T14:36:00.182Z,1.70
2023-03-10T14:38:28.097Z,1.63
2023-03-10T14:40:56.483Z,1.60
2023-03-10T14:43:25.875Z,1.80
2023-03-10T14:45:55.317Z,2.13
2023-03-10T14:48:24.564Z,1.50
2023-03-10T14:50:56.603Z,1.60
2023-03-10T14:53:26.800Z,2.03
2023-03-10T14:55:55.954Z,2.10
2023-03-10T14:58:24.792Z,1.80
2023-03-10T15:00:52.915Z,1.73
2023-03-10T15:03:21.713Z,2.00
2023-03-10T15:05:49.675Z,1.67
2023-03-10T15:08:19.258Z,1.50
2023-03-10T15:10:48.596Z,1.73
2023-03-10T15:13:18.323Z,2.00
2023-03-10T15:15:47.343Z,1.70
2023-03-10T15:18:16.339Z,1.90
2023-03-10T15:20:44.393Z,1.70
2023-03-10T15:23:16.520Z,1.80
2023-03-10T15:25:47.440Z,1.70
2023-03-10T15:28:15.533Z,1.53
2023-03-10T15:30:43.439Z,1.50
2023-03-10T15:33:11.796Z,1.50
2023-03-10T15:35:40.028Z,1.67
2023-03-10T15:38:08.392Z,1.97
2023-03-10T15:40:38.894Z,2.00
2023-03-10T15:43:09.218Z,1.77
2023-03-10T15:45:39.423Z,1.67
2023-03-10T15:48:07.480Z,2.03
2023-03-10T15:50:35.829Z,1.67
2023-03-10T15:53:04.179Z,1.90
2023-03-10T15:55:32.360Z,1.80
2023-03-10T15:58:00.381Z,1.40
2023-03-10T16:00:29.818Z,1.97
2023-03-10T16:02:57.775Z,1.60
2023-03-10T16:05:25.798Z,1.67
2023-03-10T16:07:53.874Z,1.87
2023-03-10T16:10:22.081Z,1.53
2023-03-10T16:12:49.991Z,1.97
2023-03-10T16:15:18.550Z,1.73
2023-03-10T16:17:47.963Z,1.60
2023-03-10T16:20:19.197Z,1.30
2023-03-10T16:22:47.097Z,1.97
2023-03-10T16:25:15.862Z,2.07
2023-03-10T16:27:44.566Z,2.10
2023-03-10T16:30:13.340Z,1.70
2023-03-10T16:32:41.280Z,1.43
2023-03-10T16:35:11.259Z,1.73
2023-03-10T16:37:39.826Z,1.73
2023-03-10T16:40:08.750Z,1.43
2023-03-10T16:42:37.028Z,1.90
2023-03-10T16:45:05.280Z,1.60
2023-03-10T16:47:33.494Z,2.30
2023-03-10T16:50:01.423Z,1.70
2023-03-10T16:52:30.889Z,2.13
2023-03-10T16:54:59.057Z,2.20
2023-03-10T16:57:27.066Z,1.60
2023-03-10T16:59:55.214Z,1.83
2023-03-10T17:02:23.264Z,2.03
2023-03-10T17:04:51.353Z,1.87
2023-03-10T17:07:19.447Z,1.87
2023-03-10T17:09:49.628Z,2.70
2023-03-10T17:12:17.770Z,1.70
2023-03-10T17:14:45.700Z,2.20
2023-03-10T17:17:14.204Z,2.30
2023-03-10T17:19:42.126Z,2.07
2023-03-10T17:22:10.119Z,2.13
2023-03-10T17:24:38.029Z,1.70
2023-03-10T17:27:07.860Z,1.77
2023-03-10T17:29:35.801Z,1.47
2023-03-10T17:32:03.821Z,1.60
2023-03-10T17:34:31.717Z,1.93
2023-03-10T17:36:59.693Z,1.57
2023-03-10T17:39:28.181Z,1.53
2023-03-10T17:41:56.173Z,1.90
2023-03-10T17:44:25.751Z,1.70
2023-03-10T17:46:56.050Z,1.77
2023-03-10T17:49:23.998Z,1.83
2023-03-10T17:51:51.959Z,1.73
2023-03-10T17:54:20.822Z,2.27
2023-03-10T17:56:48.922Z,1.60
2023-03-10T17:59:16.867Z,1.63
2023-03-10T18:01:46.470Z,1.30
2023-03-10T18:04:14.643Z,2.13
2023-03-10T18:06:42.958Z,1.97
2023-03-10T18:09:13.434Z,1.50
2023-03-10T18:11:41.514Z,1.73
2023-03-10T18:14:09.444Z,1.43
2023-03-10T18:16:39.596Z,1.93
2023-03-10T18:19:10.849Z,1.50
2023-03-10T18:21:39.158Z,2.03
2023-03-10T18:24:08.942Z,2.13
2023-03-10T18:26:38.150Z,1.60
2023-03-10T18:29:06.489Z,1.70
2023-03-10T18:31:35.203Z,1.63
2023-03-10T18:34:03.766Z,1.53
2023-03-10T18:36:33.470Z,1.43
2023-03-10T18:39:02.504Z,1.63
2023-03-10T18:41:31.123Z,1.70
2023-03-10T18:44:00.038Z,1.47
2023-03-10T18:46:28.093Z,1.70
2023-03-10T18:48:56.706Z,1.80
2023-03-10T18:51:25.465Z,1.40
2023-03-10T18:53:55.338Z,2.03
2023-03-10T18:56:26.119Z,2.23
2023-03-10T18:58:54.261Z,2.20
2023-03-10T19:01:22.634Z,2.30
2023-03-10T19:03:50.712Z,2.10
2023-03-10T19:06:18.751Z,1.80
2023-03-10T19:08:46.837Z,2.03
2023-03-10T19:11:16.274Z,2.27
2023-03-10T19:13:45.226Z,1.90
2023-03-10T19:16:13.621Z,1.97
2023-03-10T19:18:41.874Z,1.50
2023-03-10T19:21:13.120Z,1.60
2023-03-10T19:23:41.682Z,1.90
2023-03-10T19:26:10.310Z,1.60
2023-03-10T19:28:39.754Z,1.80
2023-03-10T19:31:11.311Z,1.90
2023-03-10T19:33:39.956Z,1.70
2023-03-10T19:36:10.681Z,1.30
2023-03-10T19:38:40.412Z,1.67
2023-03-10T19:41:11.636Z,2.43
2023-03-10T19:43:41.020Z,1.97
2023-03-10T19:46:10.035Z,1.97
2023-03-10T19:48:37.966Z,1.87
2023-03-10T19:51:06.853Z,2.13
2023-03-10T19:53:35.426Z,1.97
2023-03-10T19:56:04.550Z,1.60
2023-03-10T19:58:32.955Z,2.13
2023-03-10T20:01:02.479Z,1.47
2023-03-10T20:03:31.736Z,1.60
2023-03-10T20:06:01.525Z,1.90
2023-03-10T20:08:29.492Z,1.63
2023-03-10T20:11:02.224Z,1.50
2023-03-10T20:13:30.457Z,1.83
2023-03-10T20:15:58.671Z,1.97
2023-03-10T20:18:28.839Z,1.83
2023-03-10T20:20:56.792Z,1.97
2023-03-10T20:23:24.816Z,1.70
2023-03-10T20:26:00.867Z,2.57
2023-03-10T20:28:28.986Z,2.80
2023-03-10T20:30:56.948Z,1.77
2023-03-10T20:33:25.670Z,2.03
2023-03-10T20:35:55.239Z,2.03
2023-03-10T20:38:23.538Z,2.17
2023-03-10T20:40:51.740Z,1.73
2023-03-10T20:43:19.642Z,1.73
2023-03-10T20:45:47.672Z,2.00
2023-03-10T20:48:15.607Z,1.57
2023-03-10T20:50:43.698Z,2.33
2023-03-10T20:53:13.052Z,2.30
2023-03-10T20:55:42.628Z,2.30
2023-03-10T20:58:10.609Z,2.27
2023-03-10T21:00:38.789Z,2.47
2023-03-10T21:03:06.835Z,2.03
2023-03-10T21:05:34.850Z,3.10
2023-03-10T21:08:02.937Z,2.83
2023-03-10T21:10:32.473Z,3.53
2023-03-10T21:13:00.432Z,4.27
2023-03-10T21:15:28.448Z,5.50
2023-03-10T21:17:56.522Z,4.07
2023-03-10T21:20:24.719Z,5.07
2023-03-10T21:22:52.634Z,3.87
2023-03-10T21:25:22.294Z,3.67
2023-03-10T21:27:52.840Z,3.30
2023-03-10T21:30:21.559Z,2.80
2023-03-10T21:32:49.546Z,3.37
2023-03-10T21:35:17.709Z,3.07
2023-03-10T21:37:47.637Z,2.77
2023-03-10T21:40:19.952Z,2.53
2023-03-10T21:42:48.014Z,2.60
2023-03-10T21:45:19.180Z,3.20
2023-03-10T21:47:47.258Z,2.40
2023-03-10T21:50:15.883Z,2.63
2023-03-10T21:52:45.687Z,2.37
2023-03-10T21:55:17.146Z,1.87
2023-03-10T21:57:45.082Z,1.73
2023-03-10T22:00:13.596Z,1.77
2023-03-10T22:02:43.527Z,1.93
2023-03-10T22:05:13.390Z,2.13
2023-03-10T22:07:41.427Z,2.07
2023-03-10T22:10:10.093Z,2.23
2023-03-10T22:12:38.041Z,1.80
2023-03-10T22:15:06.378Z,2.20
2023-03-10T22:17:34.624Z,2.10
2023-03-10T22:20:07.175Z,1.87
2023-03-10T22:22:35.175Z,1.97
2023-03-10T22:25:03.052Z,1.93
2023-03-10T22:27:31.062Z,2.03
2023-03-10T22:29:58.986Z,2.20
2023-03-10T22:32:26.974Z,1.67
2023-03-10T22:34:54.958Z,2.00
2023-03-10T22:37:24.282Z,2.17
2023-03-10T22:39:52.219Z,2.00
2023-03-10T22:42:20.142Z,2.40
2023-03-10T22:44:48.049Z,2.20
2023-03-10T22:47:16.022Z,1.63
2023-03-10T22:49:43.891Z,1.93
2023-03-10T22:52:11.892Z,1.90
2023-03-10T22:54:41.256Z,2.33
2023-03-10T22:57:09.219Z,2.20
2023-03-10T22:59:37.173Z,2.30
2023-03-10T23:02:05.129Z,2.10
2023-03-10T23:04:33.111Z,2.27
2023-03-10T23:07:01.076Z,2.10
2023-03-10T23:09:29.086Z,2.23
2023-03-10T23:11:58.463Z,2.33
2023-03-10T23:14:26.403Z,2.70
2023-03-10T23:16:54.330Z,2.17
2023-03-10T23:19:22.407Z,1.70
2023-03-10T23:21:50.278Z,1.73
2023-03-10T23:24:18.204Z,2.40
2023-03-10T23:26:46.264Z,1.80
2023-03-10T23:29:15.671Z,1.80
2023-03-10T23:31:43.561Z,2.10
2023-03-10T23:34:11.498Z,2.33
2023-03-10T23:36:39.380Z,2.20
2023-03-10T23:39:07.647Z,2.80
2023-03-10T23:41:35.946Z,2.50
2023-03-10T23:44:03.866Z,2.63
2023-03-10T23:46:33.231Z,2.53
2023-03-10T23:49:01.192Z,2.23
2023-03-10T23:51:30.935Z,1.50
2023-03-10T23:53:58.866Z,2.03
2023-03-10T23:56:26.815Z,2.37
2023-03-10T23:58:57.352Z,2.00
